Time;durP1;ratioP1;P1;durP2;ratioP2;P2;SDS_P1;SDS_P2;PMS_P1;PMS_P2;Temp;Humidity;BMP_temperature;BMP_pressure;BME280_temperature;BME280_humidity;BME280_pressure;Samples;Min_cycle;Max_cycle;Signal;HPM_P1;HPM_P2
2021/07/01 00:00:47;;;;;;;22.02;6.28;;;;;;;19.39;92.30;100343.55;1677975;85;21570;-39
2021/07/01 00:03:14;;;;;;;43.95;6.78;;;;;;;19.41;92.52;100338.19;1679323;85;20964;-39
2021/07/01 00:05:43;;;;;;;36.77;6.22;;;;;;;19.43;92.64;100336.32;1679136;85;20966;-38
2021/07/01 00:08:10;;;;;;;39.03;7.55;;;;;;;19.45;92.78;100333.14;1671728;85;21002;-40
2021/07/01 00:10:36;;;;;;;30.65;6.65;;;;;;;19.47;93.02;100336.55;1686952;84;21963;-39
2021/07/01 00:13:03;;;;;;;36.13;7.25;;;;;;;19.48;93.06;100339.55;1677845;84;20929;-38
2021/07/01 00:15:32;;;;;;;25.57;5.87;;;;;;;19.49;93.16;100334.68;1659907;84;20952;-39
2021/07/01 00:17:58;;;;;;;27.55;5.37;;;;;;;19.49;93.11;100324.18;1676818;85;21594;-38
2021/07/01 00:20:25;;;;;;;12.00;5.08;;;;;;;19.51;93.07;100318.37;1673490;84;20992;-38
2021/07/01 00:22:52;;;;;;;8.70;5.03;;;;;;;19.49;93.15;100308.44;1707101;82;21186;-39
2021/07/01 00:25:19;;;;;;;9.60;4.40;;;;;;;19.46;93.10;100305.98;1710519;83;20925;-39
2021/07/01 00:27:45;;;;;;;15.05;5.47;;;;;;;19.44;93.17;100312.63;1698951;84;20993;-40
2021/07/01 00:30:14;;;;;;;11.85;4.53;;;;;;;19.41;93.21;100315.43;1699692;84;21012;-41
2021/07/01 00:32:41;;;;;;;6.25;4.72;;;;;;;19.39;93.32;100302.88;1704052;83;21467;-41
2021/07/01 00:35:10;;;;;;;11.15;4.83;;;;;;;19.38;93.44;100308.57;1687136;83;22130;-40
2021/07/01 00:37:36;;;;;;;13.60;4.95;;;;;;;19.35;93.43;100306.61;1707185;83;21079;-40
2021/07/01 00:40:05;;;;;;;10.38;4.17;;;;;;;19.35;93.64;100306.61;1706388;83;20930;-40
2021/07/01 00:42:32;;;;;;;8.50;4.58;;;;;;;19.32;93.71;100303.69;1696045;84;20988;-40
2021/07/01 00:44:58;;;;;;;8.93;4.42;;;;;;;19.30;93.76;100302.07;1705923;83;22717;-40
2021/07/01 00:47:25;;;;;;;8.40;4.80;;;;;;;19.27;93.95;100296.55;1699799;83;21104;-40
2021/07/01 00:49:53;;;;;;;6.30;4.12;;;;;;;19.26;94.13;100298.80;1708342;83;21031;-40
2021/07/01 00:52:20;;;;;;;7.37;4.70;;;;;;;19.23;94.15;100295.88;1688264;85;20933;-40
2021/07/01 00:54:46;;;;;;;10.63;4.85;;;;;;;19.19;94.19;100290.42;1706008;84;21014;-40
2021/07/01 00:57:13;;;;;;;7.03;4.83;;;;;;;19.17;94.36;100297.99;1706104;83;21885;-40
2021/07/01 00:59:41;;;;;;;11.57;4.90;;;;;;;19.15;94.56;100295.48;1703627;83;21204;-40
2021/07/01 01:02:07;;;;;;;7.78;4.45;;;;;;;19.13;94.77;100293.41;1677824;84;21510;-40
2021/07/01 01:04:34;;;;;;;25.57;6.28;;;;;;;19.13;94.88;100305.21;1684469;84;20976;-40
2021/07/01 01:07:04;;;;;;;36.68;6.95;;;;;;;19.12;95.04;100310.53;1697562;83;21035;-40
2021/07/01 01:09:32;;;;;;;48.78;8.08;;;;;;;19.13;95.40;100315.70;1687899;84;21061;-40
2021/07/01 01:11:59;;;;;;;49.80;7.97;;;;;;;19.13;95.40;100309.59;1654076;85;21153;-40
2021/07/01 01:14:25;;;;;;;39.20;6.90;;;;;;;19.13;95.54;100306.97;1661047;85;21026;-40
2021/07/01 01:16:56;;;;;;;38.73;6.97;;;;;;;19.12;95.61;100309.22;1693071;83;20965;-40
2021/07/01 01:19:23;;;;;;;28.60;7.33;;;;;;;19.10;95.63;100305.39;1706857;84;21031;-40
2021/07/01 01:21:50;;;;;;;34.08;7.08;;;;;;;19.09;95.74;100306.33;1708237;84;20971;-40
2021/07/01 01:24:17;;;;;;;32.75;6.95;;;;;;;19.10;95.96;100306.22;1708241;82;21223;-41
2021/07/01 01:26:44;;;;;;;36.28;7.45;;;;;;;19.09;95.97;100291.41;1690464;83;20949;-40
2021/07/01 01:29:11;;;;;;;23.00;6.28;;;;;;;19.08;95.99;100294.14;1700503;83;20976;-41
2021/07/01 01:31:38;;;;;;;17.70;5.70;;;;;;;19.05;95.99;100284.66;1669807;85;21084;-40
2021/07/01 01:34:05;;;;;;;18.82;6.47;;;;;;;19.05;96.27;100283.34;1666338;85;20952;-40
2021/07/01 01:36:31;;;;;;;13.03;4.50;;;;;;;19.04;96.25;100282.11;1686782;83;21271;-40
2021/07/01 01:38:58;;;;;;;11.63;4.70;;;;;;;19.01;96.09;100283.15;1694351;83;20985;-40
2021/07/01 01:41:33;;;;;;;10.75;5.08;;;;;;;18.98;96.15;100281.12;1706899;83;21506;-40
2021/07/01 01:43:59;;;;;;;16.00;5.15;;;;;;;18.96;96.26;100279.91;1686655;84;21426;-40
2021/07/01 01:46:37;;;;;;;11.48;5.37;;;;;;;18.94;96.43;100285.23;1654404;84;21686;-40
2021/07/01 01:49:05;;;;;;;5.50;4.97;;;;;;;18.93;96.47;100282.23;1657203;85;21036;-39
2021/07/01 01:51:33;;;;;;;8.78;4.85;;;;;;;18.91;96.47;100286.72;1689052;83;21091;-39
2021/07/01 01:54:05;;;;;;;15.03;5.10;;;;;;;18.90;96.51;100293.34;1693000;84;20932;-39
2021/07/01 01:56:45;;;;;;;11.18;4.67;;;;;;;18.88;96.63;100288.20;1705156;82;20944;-39
2021/07/01 01:59:08;;;;;;;8.98;5.50;;;;;;;18.87;96.78;100290.45;1707539;82;20920;-39
2021/07/01 02:01:53;;;;;;;14.25;5.95;;;;;;;18.89;96.93;100306.94;1698552;83;21089;-39
2021/07/01 02:04:21;;;;;;;49.70;10.18;;;;;;;18.90;97.32;100316.95;1706391;83;20928;-39
2021/07/01 02:06:49;;;;;;;56.10;9.10;;;;;;;18.92;97.67;100323.81;1699708;83;21553;-39
2021/07/01 02:09:18;;;;;;;32.78;8.08;;;;;;;18.94;97.94;100320.63;1701240;84;21028;-39
2021/07/01 02:11:48;;;;;;;28.23;7.58;;;;;;;19.00;98.34;100325.18;1693960;84;21056;-39
2021/07/01 02:14:19;;;;;;;32.38;6.47;;;;;;;19.05;98.63;100334.94;1693368;83;21796;-39
2021/07/01 02:17:05;;;;;;;9.90;5.58;;;;;;;19.11;98.96;100333.31;1719333;82;20960;-38
2021/07/01 02:19:32;;;;;;;21.82;5.55;;;;;;;19.19;99.21;100319.73;1709327;82;21039;-39
2021/07/01 02:21:59;;;;;;;23.90;6.17;;;;;;;19.27;99.34;100333.73;1714059;82;20948;-38
2021/07/01 02:24:26;;;;;;;12.73;5.97;;;;;;;19.33;99.22;100336.03;1709596;82;20977;-39
2021/07/01 02:26:53;;;;;;;10.03;5.78;;;;;;;19.38;99.11;100339.23;1720383;82;21040;-39
2021/07/01 02:29:20;;;;;;;14.58;5.72;;;;;;;19.46;99.01;100353.23;1720661;83;20906;-40
2021/07/01 02:31:54;;;;;;;15.72;5.50;;;;;;;19.50;98.89;100351.63;1720169;83;21043;-39
2021/07/01 02:34:21;;;;;;;14.90;5.35;;;;;;;19.53;98.67;100354.08;1721244;83;20999;-39
2021/07/01 02:37:08;;;;;;;23.67;6.50;;;;;;;19.60;98.50;100349.81;1721437;83;20940;-38
2021/07/01 02:39:54;;;;;;;14.80;5.72;;;;;;;19.63;98.22;100334.70;1718818;82;21080;-39
2021/07/01 02:42:22;;;;;;;10.20;5.60;;;;;;;19.67;97.98;100342.77;1721114;83;20958;-39
2021/07/01 02:44:49;;;;;;;18.45;5.53;;;;;;;19.72;97.83;100349.08;1693487;83;20916;-39
2021/07/01 02:47:35;;;;;;;17.87;5.47;;;;;;;19.77;97.62;100349.64;1706971;82;20953;-38
2021/07/01 02:50:04;;;;;;;14.78;6.20;;;;;;;19.80;97.32;100353.40;1705403;83;21537;-39
2021/07/01 02:52:32;;;;;;;9.38;5.58;;;;;;;19.85;97.17;100359.70;1672073;83;21159;-39
2021/07/01 02:55:01;;;;;;;11.20;5.87;;;;;;;19.89;96.92;100355.13;1715603;82;20921;-39
2021/07/01 02:57:28;;;;;;;15.13;5.55;;;;;;;19.94;96.72;100346.53;1716050;82;21058;-39
2021/07/01 02:59:56;;;;;;;8.98;5.47;;;;;;;19.99;96.45;100354.14;1718987;82;20979;-39
2021/07/01 03:02:25;;;;;;;12.20;5.95;;;;;;;20.03;95.98;100348.59;1718877;83;21472;-40
2021/07/01 03:05:04;;;;;;;13.20;5.87;;;;;;;20.06;95.58;100351.52;1719040;83;21164;-39
2021/07/01 03:07:30;;;;;;;9.65;5.97;;;;;;;20.13;95.29;100342.80;1686083;83;20905;-40
2021/07/01 03:09:57;;;;;;;17.73;5.60;;;;;;;20.16;94.87;100342.62;1671322;85;20992;-41
2021/07/01 03:12:24;;;;;;;15.05;5.95;;;;;;;20.22;94.61;100352.75;1670898;85;21043;-39
2021/07/01 03:14:53;;;;;;;21.20;5.92;;;;;;;20.27;94.30;100353.30;1652318;86;21000;-40
2021/07/01 03:17:19;;;;;;;8.15;5.58;;;;;;;20.33;93.91;100348.98;1618123;87;21247;-40
2021/07/01 03:19:46;;;;;;;10.55;5.90;;;;;;;20.41;93.57;100349.00;1635961;87;21086;-40
2021/07/01 03:22:31;;;;;;;12.53;5.85;;;;;;;20.45;93.19;100343.92;1635970;87;20878;-40
2021/07/01 03:24:57;;;;;;;18.42;6.05;;;;;;;20.53;92.74;100356.11;1636799;86;20938;-40
2021/07/01 03:27:24;;;;;;;25.90;6.28;;;;;;;20.64;92.60;100352.82;1685474;84;21008;-41
2021/07/01 03:29:51;;;;;;;38.05;7.35;;;;;;;20.77;92.29;100346.31;1683445;85;21113;-40
2021/07/01 03:32:18;;;;;;;22.52;6.30;;;;;;;20.91;91.87;100346.33;1684116;84;20992;-40
2021/07/01 03:34:45;;;;;;;8.68;4.95;;;;;;;21.08;91.47;100354.45;1686664;84;21446;-41
2021/07/01 03:37:13;;;;;;;23.30;6.40;;;;;;;21.29;91.04;100367.62;1688060;85;21023;-41
2021/07/01 03:39:58;;;;;;;23.67;6.62;;;;;;;21.43;90.08;100359.69;1685839;84;20985;-40
2021/07/01 03:42:26;;;;;;;19.67;6.05;;;;;;;21.49;88.83;100355.81;1684550;84;21150;-40
2021/07/01 03:44:53;;;;;;;26.37;5.83;;;;;;;21.50;87.99;100364.08;1687825;84;21107;-40
2021/07/01 03:47:19;;;;;;;10.03;6.15;;;;;;;21.47;87.28;100361.16;1683067;84;21621;-40
2021/07/01 03:49:48;;;;;;;24.57;6.40;;;;;;;21.45;87.21;100368.33;1682894;84;20973;-40
2021/07/01 03:52:15;;;;;;;27.55;6.47;;;;;;;21.51;86.92;100363.97;1684291;83;21121;-39
2021/07/01 03:54:46;;;;;;;17.90;6.28;;;;;;;21.59;86.40;100349.44;1684753;84;21123;-38
2021/07/01 03:57:13;;;;;;;18.45;6.83;;;;;;;21.65;85.91;100347.77;1676504;84;20979;-39
2021/07/01 03:59:42;;;;;;;30.23;7.60;;;;;;;21.74;85.99;100353.72;1658571;85;20936;-39
2021/07/01 04:02:26;;;;;;;45.95;7.42;;;;;;;21.89;85.49;100351.84;1684058;84;20953;-40
2021/07/01 04:04:55;;;;;;;26.27;6.95;;;;;;;22.13;84.84;100342.37;1686460;84;21008;-40
2021/07/01 04:07:22;;;;;;;25.77;6.72;;;;;;;22.36;84.31;100340.30;1686707;84;21201;-40
2021/07/01 04:09:48;;;;;;;17.12;6.35;;;;;;;22.64;83.51;100341.02;1688288;84;20941;-41
2021/07/01 04:12:16;;;;;;;23.62;7.45;;;;;;;22.93;82.84;100339.85;1682253;84;20956;-40
2021/07/01 04:15:02;;;;;;;28.12;7.25;;;;;;;23.23;81.73;100340.73;1700970;83;21412;-40
2021/07/01 04:17:33;;;;;;;31.68;6.92;;;;;;;23.46;79.94;100338.67;1691879;83;20980;-40
2021/07/01 04:20:19;;;;;;;13.93;7.00;;;;;;;23.65;79.18;100334.20;1615377;87;21174;-41
2021/07/01 04:23:05;;;;;;;10.17;5.87;;;;;;;23.92;77.11;100337.01;1664416;84;20960;-40
2021/07/01 04:25:52;;;;;;;13.78;6.67;;;;;;;24.10;75.96;100328.98;1627890;86;21044;-40
2021/07/01 04:28:18;;;;;;;8.75;5.53;;;;;;;24.24;75.08;100316.50;1628695;87;20960;-40
2021/07/01 04:30:45;;;;;;;13.10;6.55;;;;;;;24.43;74.21;100325.14;1658416;83;21014;-40
2021/07/01 04:33:14;;;;;;;12.78;6.28;;;;;;;24.61;73.69;100314.06;1688934;83;21023;-40
2021/07/01 04:35:47;;;;;;;12.73;6.05;;;;;;;24.84;73.19;100322.81;1685841;84;20940;-39
2021/07/01 04:38:10;;;;;;;14.58;6.33;;;;;;;25.12;71.64;100317.91;1707795;83;21556;-41
2021/07/01 04:40:37;;;;;;;13.70;6.22;;;;;;;25.43;71.67;100304.78;1706842;84;20968;-40
2021/07/01 04:43:04;;;;;;;14.47;5.58;;;;;;;25.80;69.75;100310.96;1656637;85;20925;-40
2021/07/01 04:45:32;;;;;;;18.10;6.05;;;;;;;26.03;68.14;100299.37;1689049;83;21138;-40
2021/07/01 04:47:59;;;;;;;11.05;5.67;;;;;;;26.17;67.34;100300.34;1709543;83;21004;-40
2021/07/01 04:50:27;;;;;;;7.90;5.37;;;;;;;26.33;66.55;100303.00;1670844;85;20988;-40
2021/07/01 04:52:56;;;;;;;14.00;5.55;;;;;;;26.50;65.79;100304.16;1651260;85;20976;-39
2021/07/01 04:55:40;;;;;;;16.48;4.95;;;;;;;26.64;65.82;100296.29;1641866;85;21012;-40
2021/07/01 04:58:21;;;;;;;10.40;5.03;;;;;;;26.91;65.17;100298.32;1652295;83;21814;-41
2021/07/01 05:00:49;;;;;;;11.65;5.22;;;;;;;27.16;64.68;100297.41;1687005;83;20964;-40
2021/07/01 05:03:20;;;;;;;8.90;4.90;;;;;;;27.38;63.16;100296.74;1636557;85;21019;-40
2021/07/01 05:05:47;;;;;;;17.42;5.45;;;;;;;27.51;62.59;100278.72;1708248;84;20952;-40
2021/07/01 05:08:16;;;;;;;6.33;5.00;;;;;;;27.65;62.26;100280.08;1704449;83;21459;-39
2021/07/01 05:10:43;;;;;;;17.17;5.33;;;;;;;27.80;61.96;100287.10;1666204;85;22023;-40
2021/07/01 05:13:12;;;;;;;9.48;4.75;;;;;;;27.93;61.08;100291.27;1697144;83;22389;-40
2021/07/01 05:15:39;;;;;;;17.55;5.05;;;;;;;28.04;60.42;100286.23;1656358;85;21629;-40
2021/07/01 05:18:07;;;;;;;18.87;5.72;;;;;;;28.10;59.90;100280.34;1649967;85;21052;-40
2021/07/01 05:20:35;;;;;;;10.13;5.00;;;;;;;28.27;60.04;100284.07;1673247;84;20915;-40
2021/07/01 05:23:20;;;;;;;12.15;5.53;;;;;;;28.49;59.49;100287.31;1636423;87;21435;-40
2021/07/01 05:25:48;;;;;;;48.40;6.70;;;;;;;28.66;58.21;100275.83;1664168;83;20980;-40
2021/07/01 05:28:33;;;;;;;18.55;5.00;;;;;;;28.79;58.13;100277.32;1672052;85;21583;-40
2021/07/01 05:31:18;;;;;;;9.03;4.45;;;;;;;28.88;57.36;100288.89;1624020;86;20933;-39
2021/07/01 05:34:01;;;;;;;12.37;4.45;;;;;;;29.01;57.00;100292.50;1610086;88;21000;-40
2021/07/01 05:36:29;;;;;;;6.20;3.58;;;;;;;29.14;55.23;100291.60;1684204;83;21272;-39
2021/07/01 05:38:57;;;;;;;12.23;4.70;;;;;;;29.27;54.73;100291.72;1702006;83;21552;-39
2021/07/01 05:41:24;;;;;;;14.15;4.80;;;;;;;29.39;55.16;100288.64;1660726;85;20886;-39
2021/07/01 05:43:51;;;;;;;12.18;5.08;;;;;;;29.47;55.00;100283.91;1647605;85;21012;-39
2021/07/01 05:46:20;;;;;;;9.93;3.95;;;;;;;29.65;55.01;100287.84;1703676;83;20979;-39
2021/07/01 05:48:46;;;;;;;6.03;3.90;;;;;;;29.64;54.31;100290.17;1695969;83;21114;-40
2021/07/01 05:51:14;;;;;;;7.28;3.67;;;;;;;29.51;54.13;100295.06;1703968;82;20858;-39
2021/07/01 05:53:50;;;;;;;7.70;4.20;;;;;;;29.27;54.39;100308.52;1700768;83;20979;-39
2021/07/01 05:56:09;;;;;;;11.97;3.87;;;;;;;29.01;55.34;100311.15;1691553;83;21511;-39
2021/07/01 05:58:37;;;;;;;13.03;4.37;;;;;;;29.01;54.95;100307.16;1706620;83;20976;-39
2021/07/01 06:01:04;;;;;;;10.30;4.17;;;;;;;28.95;55.36;100316.58;1662735;85;21068;-39
2021/07/01 06:03:32;;;;;;;16.05;3.90;;;;;;;29.02;55.58;100314.97;1677528;84;20953;-39
2021/07/01 06:06:09;;;;;;;9.25;3.83;;;;;;;29.09;54.84;100313.88;1681334;84;20945;-39
2021/07/01 06:08:49;;;;;;;15.00;4.10;;;;;;;29.14;55.26;100310.25;1671560;84;21043;-40
2021/07/01 06:11:16;;;;;;;22.13;4.10;;;;;;;29.25;54.23;100306.03;1674218;85;20893;-39
2021/07/01 06:13:43;;;;;;;9.78;3.10;;;;;;;29.41;54.28;100304.49;1669552;85;21122;-40
2021/07/01 06:16:14;;;;;;;4.33;3.27;;;;;;;29.57;52.91;100298.47;1701556;83;20900;-40
2021/07/01 06:18:41;;;;;;;5.53;3.83;;;;;;;29.51;52.22;100295.92;1687041;83;20957;-40
2021/07/01 06:21:09;;;;;;;14.50;4.75;;;;;;;29.39;53.10;100298.45;1682808;84;21115;-40
2021/07/01 06:23:39;;;;;;;13.95;4.20;;;;;;;29.37;53.40;100298.63;1703081;83;21483;-40
2021/07/01 06:26:07;;;;;;;9.53;3.98;;;;;;;29.33;53.22;100293.75;1705152;84;21175;-40
2021/07/01 06:28:41;;;;;;;14.65;4.25;;;;;;;29.30;54.04;100298.06;1687436;83;21667;-40
2021/07/01 06:31:09;;;;;;;6.75;4.58;;;;;;;29.29;55.08;100296.39;1707852;83;21466;-40
2021/07/01 06:33:38;;;;;;;8.63;4.55;;;;;;;29.32;55.27;100291.59;1687441;83;21078;-40
2021/07/01 06:36:04;;;;;;;12.60;4.37;;;;;;;29.37;54.98;100289.78;1693893;83;20984;-40
2021/07/01 06:38:33;;;;;;;9.93;5.05;;;;;;;29.30;55.25;100284.23;1700849;83;21174;-40
2021/07/01 06:41:18;;;;;;;12.33;4.70;;;;;;;29.23;55.27;100288.03;1662278;85;20951;-39
2021/07/01 06:43:49;;;;;;;10.68;4.95;;;;;;;29.23;55.71;100289.84;1635202;83;21468;-39
2021/07/01 06:46:34;;;;;;;10.03;4.87;;;;;;;29.28;56.25;100287.55;1670034;85;21459;-40
2021/07/01 06:49:20;;;;;;;14.73;5.72;;;;;;;29.41;55.89;100287.17;1643639;86;21585;-39
2021/07/01 06:52:06;;;;;;;6.70;4.72;;;;;;;29.52;55.49;100283.41;1680566;83;21123;-39
2021/07/01 06:54:50;;;;;;;11.70;5.20;;;;;;;29.58;56.36;100278.81;1702259;84;21004;-39
2021/07/01 06:57:35;;;;;;;12.63;5.47;;;;;;;29.72;56.41;100273.39;1706786;83;20929;-40
2021/07/01 07:00:04;;;;;;;8.13;5.60;;;;;;;29.80;56.01;100274.75;1707591;83;21157;-39
2021/07/01 07:02:34;;;;;;;7.83;5.92;;;;;;;29.77;56.06;100272.41;1688719;84;21080;-39
2021/07/01 07:05:09;;;;;;;9.53;5.50;;;;;;;29.70;56.53;100270.05;1693004;83;21223;-39
2021/07/01 07:07:36;;;;;;;9.30;5.87;;;;;;;29.65;56.81;100278.99;1698218;83;21027;-40
2021/07/01 07:10:06;;;;;;;13.35;5.87;;;;;;;29.61;56.47;100276.30;1672904;84;20961;-39
2021/07/01 07:12:38;;;;;;;13.32;5.80;;;;;;;29.39;55.86;100271.80;1630200;87;21142;-40
2021/07/01 07:15:03;;;;;;;12.20;5.45;;;;;;;29.21;57.12;100271.36;1682966;83;21011;-40
2021/07/01 07:17:30;;;;;;;13.95;5.95;;;;;;;29.15;56.68;100276.47;1704587;83;21794;-39
2021/07/01 07:19:57;;;;;;;14.93;5.80;;;;;;;28.96;57.25;100281.81;1702104;83;20991;-39
2021/07/01 07:22:27;;;;;;;11.12;5.12;;;;;;;28.88;56.97;100277.73;1705930;83;21011;-39
2021/07/01 07:24:54;;;;;;;12.23;5.37;;;;;;;28.81;57.83;100280.19;1713955;83;20972;-40
2021/07/01 07:27:28;;;;;;;13.15;4.95;;;;;;;28.74;57.36;100280.40;1713527;83;21014;-39
2021/07/01 07:29:54;;;;;;;13.93;5.50;;;;;;;28.60;58.05;100280.43;1719456;83;21068;-39
2021/07/01 07:32:23;;;;;;;10.45;5.62;;;;;;;28.46;58.95;100284.44;1680007;84;21006;-40
2021/07/01 07:34:50;;;;;;;8.55;5.17;;;;;;;28.36;58.83;100283.67;1671988;85;20944;-40
2021/07/01 07:37:17;;;;;;;12.15;5.78;;;;;;;28.21;59.48;100278.02;1683203;85;20999;-40
2021/07/01 07:39:45;;;;;;;20.30;6.70;;;;;;;28.15;60.15;100281.22;1684357;83;21541;-40
2021/07/01 07:42:11;;;;;;;19.48;6.28;;;;;;;28.15;60.73;100284.76;1687088;85;21072;-39
2021/07/01 07:44:39;;;;;;;38.48;6.00;;;;;;;28.13;61.11;100288.03;1686967;85;20999;-39
2021/07/01 07:47:13;;;;;;;10.38;5.90;;;;;;;27.96;61.16;100292.30;1681815;84;20924;-40
2021/07/01 07:49:41;;;;;;;30.52;7.35;;;;;;;27.80;59.16;100291.09;1672878;85;20897;-40
2021/07/01 07:52:12;;;;;;;27.87;8.60;;;;;;;27.53;59.85;100296.69;1673180;85;21455;-40
2021/07/01 07:54:48;;;;;;;42.10;8.23;;;;;;;27.44;60.57;100294.02;1685975;84;21156;-40
2021/07/01 07:57:15;;;;;;;41.33;8.63;;;;;;;27.42;60.72;100287.53;1678809;85;21526;-39
2021/07/01 07:59:44;;;;;;;46.58;8.58;;;;;;;27.37;60.80;100283.11;1657223;85;21389;-39
2021/07/01 08:02:28;;;;;;;33.42;8.10;;;;;;;27.29;60.89;100281.66;1672559;85;21011;-40
2021/07/01 08:04:57;;;;;;;30.60;7.62;;;;;;;27.23;61.61;100281.26;1643130;85;20973;-39
2021/07/01 08:07:23;;;;;;;29.10;8.08;;;;;;;27.21;62.35;100293.84;1672755;85;21101;-40
2021/07/01 08:09:50;;;;;;;23.02;7.30;;;;;;;27.32;63.09;100289.34;1643606;85;21167;-39
2021/07/01 08:12:17;;;;;;;33.02;8.13;;;;;;;27.47;62.44;100280.44;1685494;85;20996;-39
2021/07/01 08:14:45;;;;;;;32.53;7.62;;;;;;;27.61;62.78;100274.72;1682424;85;21060;-40
2021/07/01 08:17:14;;;;;;;32.33;7.87;;;;;;;27.87;63.15;100271.89;1702474;83;20850;-39
2021/07/01 08:19:41;;;;;;;25.30;6.78;;;;;;;28.14;62.53;100278.21;1677019;83;21327;-39
2021/07/01 08:22:09;;;;;;;17.32;7.08;;;;;;;28.39;61.67;100280.71;1676920;83;20925;-39
2021/07/01 08:24:36;;;;;;;24.27;7.10;;;;;;;28.57;60.28;100276.74;1680539;85;21435;-40
2021/07/01 08:27:03;;;;;;;29.92;7.87;;;;;;;28.70;59.14;100278.21;1699291;83;21550;-40
2021/07/01 08:30:34;;;;;;;23.10;6.53;;;;;;;28.99;61.02;100275.84;1794605;78;22643;-39
2021/07/01 08:33:00;;;;;;;9.78;5.85;;;;;;;29.17;58.55;100285.14;1760509;80;20995;-40
2021/07/01 08:35:28;;;;;;;15.53;5.62;;;;;;;29.29;57.61;100285.73;1762321;80;21146;-40
2021/07/01 08:38:03;;;;;;;25.65;5.70;;;;;;;29.41;57.14;100281.02;1751753;80;20865;-40
2021/07/01 08:40:33;;;;;;;15.45;6.33;;;;;;;29.52;56.28;100278.08;1733003;81;21477;-41
2021/07/01 08:43:02;;;;;;;23.27;6.92;;;;;;;29.52;56.72;100274.08;1760391;81;21405;-41
2021/07/01 08:45:54;;;;;;;34.10;6.12;;;;;;;29.67;57.03;100269.00;1748369;80;20959;-40
2021/07/01 08:48:24;;;;;;;14.03;5.58;;;;;;;29.83;56.74;100267.77;1752738;81;21200;-40
2021/07/01 08:50:55;;;;;;;30.27;7.58;;;;;;;29.90;55.29;100267.13;1756898;80;20986;-40
2021/07/01 08:54:12;;;;;;;28.07;6.17;;;;;;;29.96;55.57;100266.50;1730673;81;20888;-40
2021/07/01 08:56:39;;;;;;;82.47;8.20;;;;;;;30.03;55.84;100266.22;1699630;82;20955;-41
2021/07/01 08:59:07;;;;;;;100.78;19.85;;;;;;;30.15;54.87;100272.59;1742571;81;20880;-40
2021/07/01 09:01:38;;;;;;;66.67;12.25;;;;;;;30.24;55.38;100271.13;1733263;81;21217;-40
2021/07/01 09:04:12;;;;;;;17.77;7.10;;;;;;;30.37;54.93;100267.17;1707572;83;20968;-40
2021/07/01 09:06:39;;;;;;;15.58;7.05;;;;;;;30.49;55.06;100269.86;1701408;83;22108;-40
2021/07/01 09:09:09;;;;;;;33.35;10.13;;;;;;;30.60;56.15;100268.72;1708222;83;20996;-39
2021/07/01 09:11:38;;;;;;;13.72;6.25;;;;;;;30.75;56.14;100264.10;1714838;82;20979;-40
2021/07/01 09:14:07;;;;;;;97.97;24.65;;;;;;;30.91;55.54;100257.41;1736546;82;21749;-40
2021/07/01 09:16:35;;;;;;;41.85;11.48;;;;;;;31.13;54.53;100259.08;1710240;83;20968;-40
2021/07/01 09:19:02;;;;;;;50.95;10.80;;;;;;;31.35;54.18;100255.42;1668197;84;21612;-40
2021/07/01 09:21:29;;;;;;;43.05;7.45;;;;;;;31.44;52.19;100250.89;1695287;84;21486;-40
2021/07/01 09:24:02;;;;;;;21.68;4.62;;;;;;;31.50;52.12;100253.73;1682527;84;20990;-40
2021/07/01 09:26:28;;;;;;;15.98;4.50;;;;;;;31.59;49.77;100255.03;1678474;85;21164;-40
2021/07/01 09:28:57;;;;;;;14.80;4.17;;;;;;;31.61;48.96;100256.55;1688569;83;21035;-40
2021/07/01 09:31:26;;;;;;;11.28;4.50;;;;;;;31.85;48.65;100253.98;1693971;84;20948;-40
2021/07/01 09:33:52;;;;;;;15.60;4.33;;;;;;;32.07;48.36;100255.04;1666655;84;21834;-40
2021/07/01 09:36:24;;;;;;;18.50;4.92;;;;;;;32.23;45.81;100256.30;1653943;85;21040;-40
2021/07/01 09:38:53;;;;;;;26.17;4.45;;;;;;;32.30;46.21;100246.22;1659046;85;21452;-40
2021/07/01 09:41:23;;;;;;;12.85;3.67;;;;;;;32.19;44.69;100259.01;1661154;85;21002;-40
2021/07/01 09:43:50;;;;;;;14.93;3.33;;;;;;;31.88;44.41;100258.98;1669290;84;21012;-40
2021/07/01 09:46:21;;;;;;;8.30;3.25;;;;;;;31.78;44.08;100254.67;1675076;85;21522;-40
2021/07/01 09:48:51;;;;;;;16.30;3.40;;;;;;;31.67;44.19;100250.50;1667711;85;21028;-40
2021/07/01 09:51:19;;;;;;;18.25;3.80;;;;;;;31.74;44.36;100252.48;1715001;82;21192;-41
2021/07/01 09:53:51;;;;;;;23.20;3.50;;;;;;;31.80;44.41;100254.48;1708300;82;20916;-40
2021/07/01 09:56:37;;;;;;;7.42;3.25;;;;;;;31.90;44.85;100251.13;1709695;82;20937;-40
2021/07/01 09:59:01;;;;;;;36.30;4.83;;;;;;;31.97;44.15;100247.25;1710306;82;20941;-40
2021/07/01 10:01:49;;;;;;;20.00;5.17;;;;;;;32.16;43.79;100250.00;1713304;82;21462;-40
2021/07/01 10:04:02;;;;;;;16.35;3.72;;;;;;;32.24;43.73;100251.80;1691663;83;21553;-40
2021/07/01 10:06:28;;;;;;;3.67;3.12;;;;;;;32.31;43.69;100246.06;1695785;83;21604;-40
2021/07/01 10:08:55;;;;;;;9.38;3.42;;;;;;;32.28;42.88;100242.89;1670985;83;22280;-41
2021/07/01 10:11:42;;;;;;;21.27;3.85;;;;;;;32.17;42.96;100248.98;1709721;82;20941;-41
2021/07/01 10:14:16;;;;;;;19.55;4.28;;;;;;;32.21;43.34;100240.08;1660086;85;20963;-41
2021/07/01 10:16:43;;;;;;;25.80;4.17;;;;;;;32.35;44.19;100243.38;1709805;83;21797;-39
2021/07/01 10:19:10;;;;;;;13.38;3.65;;;;;;;32.56;42.69;100236.56;1704906;82;21402;-42
2021/07/01 10:21:37;;;;;;;15.88;3.83;;;;;;;32.84;42.00;100237.34;1695560;82;21418;-41
2021/07/01 10:24:13;;;;;;;47.85;4.85;;;;;;;33.10;42.23;100233.46;1713671;82;21031;-39
2021/07/01 10:26:49;;;;;;;37.25;4.15;;;;;;;33.25;40.77;100224.10;1705197;83;21588;-40
2021/07/01 10:29:18;;;;;;;39.42;3.95;;;;;;;33.09;42.23;100222.42;1718811;82;21114;-40
2021/07/01 10:31:59;;;;;;;38.67;4.22;;;;;;;33.19;42.22;100218.14;1729450;82;20995;-40
2021/07/01 10:34:28;;;;;;;20.88;3.33;;;;;;;33.44;40.94;100221.41;1706508;83;21581;-40
2021/07/01 10:37:20;;;;;;;31.42;3.95;;;;;;;33.39;40.36;100209.03;1677284;83;21540;-40
2021/07/01 10:39:49;;;;;;;32.13;5.37;;;;;;;33.18;41.17;100207.09;1722066;82;20979;-41
2021/07/01 10:42:16;;;;;;;28.62;4.20;;;;;;;32.92;42.23;100200.31;1732971;82;21153;-41
2021/07/01 10:44:43;;;;;;;60.63;5.42;;;;;;;32.76;42.36;100205.28;1725837;82;21411;-41
2021/07/01 10:47:31;;;;;;;27.15;3.83;;;;;;;32.70;43.69;100201.95;1708145;82;22067;-41
2021/07/01 10:49:59;;;;;;;57.48;5.10;;;;;;;32.89;42.35;100193.45;1732857;82;20992;-41
2021/07/01 10:52:40;;;;;;;19.85;3.83;;;;;;;33.02;41.33;100187.99;1716244;82;21043;-41
2021/07/01 10:55:08;;;;;;;20.80;3.50;;;;;;;32.73;41.05;100192.25;1708287;83;21077;-41
2021/07/01 10:57:34;;;;;;;26.35;3.62;;;;;;;32.62;42.18;100192.17;1721207;82;20893;-40
2021/07/01 11:00:01;;;;;;;44.05;4.90;;;;;;;32.60;42.70;100199.55;1715100;82;20964;-41
2021/07/01 11:02:30;;;;;;;21.60;4.00;;;;;;;32.27;41.43;100202.41;1695462;81;21031;-41
2021/07/01 11:04:59;;;;;;;16.02;3.65;;;;;;;31.82;44.02;100195.80;1734791;82;21003;-41
2021/07/01 11:07:25;;;;;;;15.05;3.72;;;;;;;31.68;43.51;100189.80;1691239;82;21095;-41
2021/07/01 11:09:56;;;;;;;49.77;4.75;;;;;;;31.82;44.66;100186.93;1706391;83;20885;-41
2021/07/01 11:12:25;;;;;;;34.90;4.37;;;;;;;31.82;44.09;100190.45;1710355;83;20976;-40
2021/07/01 11:14:55;;;;;;;67.60;5.70;;;;;;;31.57;43.05;100184.84;1708773;83;21544;-41
2021/07/01 11:17:35;;;;;;;26.00;3.52;;;;;;;31.35;43.93;100177.41;1688021;82;20984;-40
2021/07/01 11:20:22;;;;;;;39.95;4.28;;;;;;;31.47;44.92;100175.69;1684183;84;21062;-40
2021/07/01 11:22:53;;;;;;;28.55;3.85;;;;;;;31.59;44.04;100174.33;1682075;84;20951;-41
2021/07/01 11:25:35;;;;;;;47.75;5.00;;;;;;;31.64;44.14;100167.09;1711402;82;21533;-41
2021/07/01 11:28:20;;;;;;;36.25;3.98;;;;;;;31.79;43.89;100165.39;1709520;82;20992;-40
2021/07/01 11:30:58;;;;;;;26.37;3.75;;;;;;;31.84;44.21;100158.68;1695212;82;20948;-41
2021/07/01 11:33:23;;;;;;;30.00;4.17;;;;;;;31.91;43.17;100152.95;1721472;82;21032;-41
2021/07/01 11:35:50;;;;;;;77.15;6.28;;;;;;;32.05;44.51;100149.53;1708788;83;21011;-41